Time;durP1;ratioP1;P1;durP2;ratioP2;P2;SDS_P1;SDS_P2;PMS_P1;PMS_P2;Temp;Humidity;BMP_temperature;BMP_pressure;BME280_temperature;BME280_humidity;BME280_pressure;Samples;Min_cycle;Max_cycle;Signal;HPM_P1;HPM_P2
2022/09/23 00:01:14;;;;;;;;;;;;;;;;;;5032728;28;19918;-66
2022/09/23 00:03:40;;;;;;;;;;;;;;;;;;5032735;28;20362;-66
2022/09/23 00:06:06;;;;;;;;;;;;;;;;;;5032793;28;19923;-66
2022/09/23 00:08:32;;;;;;;;;;;;;;;;;;5032776;28;19905;-66
2022/09/23 00:10:58;;;;;;;;;;;;;;;;;;5032783;28;19909;-66
2022/09/23 00:13:24;;;;;;;;;;;;;;;;;;5032402;28;20396;-66
2022/09/23 00:15:50;;;;;;;;;;;;;;;;;;5032814;28;19932;-66
2022/09/23 00:18:16;;;;;;;;;;;;;;;;;;5032900;28;20290;-67
2022/09/23 00:20:42;;;;;;;;;;;;;;;;;;5032620;28;19909;-64
2022/09/23 00:23:08;;;;;;;;;;;;;;;;;;5033212;28;20011;-66
2022/09/23 00:25:34;;;;;;;;;;;;;;;;;;5032506;28;20466;-65
2022/09/23 00:28:00;;;;;;;;;;;;;;;;;;5032034;28;19906;-66
2022/09/23 00:30:26;;;;;;;;;;;;;;;;;;5032082;28;19912;-65
2022/09/23 00:32:52;;;;;;;;;;;;;;;;;;5032288;28;19905;-63
2022/09/23 00:35:18;;;;;;;;;;;;;;;;;;5032107;28;20399;-66
2022/09/23 00:37:44;;;;;;;;;;;;;;;;;;5032707;28;20396;-66
2022/09/23 00:40:12;;;;;;;;;;;;;;;;;;5032144;28;19920;-65
2022/09/23 00:42:37;;;;;;;;;;;;;;;;;;5029049;28;19905;-64
2022/09/23 00:45:03;;;;;;;;;;;;;;;;;;5028295;28;19917;-66
2022/09/23 00:47:29;;;;;;;;;;;;;;;;;;5031833;28;19909;-65
2022/09/23 00:49:55;;;;;;;;;;;;;;;;;;5032013;28;19917;-64
2022/09/23 00:52:21;;;;;;;;;;;;;;;;;;5031893;28;19909;-64
2022/09/23 00:54:47;;;;;;;;;;;;;;;;;;5032040;28;19912;-65
2022/09/23 00:57:13;;;;;;;;;;;;;;;;;;5031107;28;20011;-65
2022/09/23 00:59:39;;;;;;;;;;;;;;;;;;5031752;28;19905;-65
2022/09/23 01:02:05;;;;;;;;;;;;;;;;;;5031966;28;19905;-65
2022/09/23 01:04:31;;;;;;;;;;;;;;;;;;5032021;28;19909;-66
2022/09/23 01:06:57;;;;;;;;;;;;;;;;;;5031395;28;20325;-66
2022/09/23 01:09:24;;;;;;;;;;;;;;;;;;5025342;28;19999;-67
2022/09/23 01:11:50;;;;;;;;;;;;;;;;;;5031174;28;20019;-66
2022/09/23 01:14:15;;;;;;;;;;;;;;;;;;5031666;28;20380;-67
2022/09/23 01:16:41;;;;;;;;;;;;;;;;;;5031708;28;19911;-64
2022/09/23 01:19:07;;;;;;;;;;;;;;;;;;5031376;28;19921;-66
2022/09/23 01:21:33;;;;;;;;;;;;;;;;;;5031528;28;19924;-66
2022/09/23 01:24:01;;;;;;;;;;;;;;;;;;5031459;28;19927;-66
2022/09/23 01:26:27;;;;;;;;;;;;;;;;;;5030992;28;19923;-66
2022/09/23 01:28:52;;;;;;;;;;;;;;;;;;5031568;28;19909;-65
2022/09/23 01:31:18;;;;;;;;;;;;;;;;;;5031900;28;19916;-67
2022/09/23 01:33:44;;;;;;;;;;;;;;;;;;5031253;28;19913;-67
2022/09/23 01:36:10;;;;;;;;;;;;;;;;;;5031356;28;19905;-66
2022/09/23 01:38:36;;;;;;;;;;;;;;;;;;5031462;28;19912;-66
2022/09/23 01:41:02;;;;;;;;;;;;;;;;;;5031169;28;19912;-66
2022/09/23 01:43:28;;;;;;;;;;;;;;;;;;5031424;28;19906;-66
2022/09/23 01:45:55;;;;;;;;;;;;;;;;;;5030874;28;19920;-66
2022/09/23 01:48:21;;;;;;;;;;;;;;;;;;5031029;28;19963;-66
2022/09/23 01:50:56;;;;;;;;;;;;;;;;;;5031627;28;19905;-66
2022/09/23 01:53:22;;;;;;;;;;;;;;;;;;5031294;28;19905;-66
2022/09/23 01:55:48;;;;;;;;;;;;;;;;;;5030219;28;19913;-65
2022/09/23 01:58:14;;;;;;;;;;;;;;;;;;5031017;28;19948;-66
2022/09/23 02:00:39;;;;;;;;;;;;;;;;;;5028297;28;19905;-67
2022/09/23 02:03:05;;;;;;;;;;;;;;;;;;5027001;28;19909;-66
2022/09/23 02:05:31;;;;;;;;;;;;;;;;;;5031168;28;19913;-66
2022/09/23 02:07:58;;;;;;;;;;;;;;;;;;5030652;28;19913;-67
2022/09/23 02:10:24;;;;;;;;;;;;;;;;;;5030516;28;19905;-66
2022/09/23 02:12:50;;;;;;;;;;;;;;;;;;5030067;28;20389;-66
2022/09/23 02:15:16;;;;;;;;;;;;;;;;;;5030355;28;19909;-66
2022/09/23 02:17:42;;;;;;;;;;;;;;;;;;5029785;28;19987;-66
2022/09/23 02:20:09;;;;;;;;;;;;;;;;;;5035051;28;19948;-66
2022/09/23 02:22:35;;;;;;;;;;;;;;;;;;5035217;28;19905;-65
2022/09/23 02:25:02;;;;;;;;;;;;;;;;;;5034027;28;19905;-66
2022/09/23 02:27:29;;;;;;;;;;;;;;;;;;5035070;28;19909;-65
2022/09/23 02:29:54;;;;;;;;;;;;;;;;;;5034776;28;19916;-66
2022/09/23 02:32:21;;;;;;;;;;;;;;;;;;5028191;28;19905;-65
2022/09/23 02:34:47;;;;;;;;;;;;;;;;;;5034484;28;19905;-65
2022/09/23 02:37:12;;;;;;;;;;;;;;;;;;5034124;28;20381;-66
2022/09/23 02:39:38;;;;;;;;;;;;;;;;;;5034235;28;19905;-65
2022/09/23 02:42:04;;;;;;;;;;;;;;;;;;5027881;28;20411;-65
2022/09/23 02:44:31;;;;;;;;;;;;;;;;;;5034076;28;19920;-66
2022/09/23 02:46:57;;;;;;;;;;;;;;;;;;5034231;28;19913;-65
2022/09/23 02:49:23;;;;;;;;;;;;;;;;;;5034572;28;19909;-66
2022/09/23 02:51:49;;;;;;;;;;;;;;;;;;5034380;28;19939;-65
2022/09/23 02:54:15;;;;;;;;;;;;;;;;;;5032255;28;20417;-67
2022/09/23 02:56:40;;;;;;;;;;;;;;;;;;5034082;28;19905;-64
2022/09/23 02:59:06;;;;;;;;;;;;;;;;;;5034066;28;19971;-63
2022/09/23 03:01:33;;;;;;;;;;;;;;;;;;5034102;28;19952;-65
2022/09/23 03:03:58;;;;;;;;;;;;;;;;;;5034631;28;19905;-65
2022/09/23 03:06:24;;;;;;;;;;;;;;;;;;5033733;28;20435;-64
2022/09/23 03:08:52;;;;;;;;;;;;;;;;;;5033268;28;20012;-66
2022/09/23 03:11:18;;;;;;;;;;;;;;;;;;5033637;28;20079;-66
2022/09/23 03:13:45;;;;;;;;;;;;;;;;;;5032389;28;19905;-63
2022/09/23 03:16:11;;;;;;;;;;;;;;;;;;5034209;28;19905;-65
2022/09/23 03:18:38;;;;;;;;;;;;;;;;;;5031601;28;20259;-65
2022/09/23 03:21:04;;;;;;;;;;;;;;;;;;5029350;28;19905;-64
2022/09/23 03:23:30;;;;;;;;;;;;;;;;;;5033157;28;19916;-64
2022/09/23 03:25:56;;;;;;;;;;;;;;;;;;5033660;28;19935;-64
2022/09/23 03:28:22;;;;;;;;;;;;;;;;;;5033925;28;19905;-66
2022/09/23 03:30:48;;;;;;;;;;;;;;;;;;5032656;28;19990;-64
2022/09/23 03:33:15;;;;;;;;;;;;;;;;;;5033521;28;20393;-65
2022/09/23 03:36:50;;;;;;;;;;;;;;;;;;5033543;28;19905;-65
2022/09/23 03:38:27;;;;;;;;;;;;;;;;;;5033473;28;19912;-66
2022/09/23 03:40:53;;;;;;;;;;;;;;;;;;5033197;28;20374;-65
2022/09/23 03:43:19;;;;;;;;;;;;;;;;;;5033515;28;19920;-66
2022/09/23 03:45:45;;;;;;;;;;;;;;;;;;5033114;28;20553;-63
2022/09/23 03:48:12;;;;;;;;;;;;;;;;;;5033064;28;19916;-66
2022/09/23 03:50:38;;;;;;;;;;;;;;;;;;5032863;28;19928;-66
2022/09/23 03:53:04;;;;;;;;;;;;;;;;;;5033559;28;19905;-67
2022/09/23 03:55:31;;;;;;;;;;;;;;;;;;5033386;28;19951;-67
2022/09/23 03:57:59;;;;;;;;;;;;;;;;;;5033081;28;19915;-67
2022/09/23 04:00:24;;;;;;;;;;;;;;;;;;5033388;28;19905;-64
2022/09/23 04:02:51;;;;;;;;;;;;;;;;;;5032692;28;20510;-66
2022/09/23 04:05:17;;;;;;;;;;;;;;;;;;5032232;28;19952;-65
2022/09/23 04:07:42;;;;;;;;;;;;;;;;;;5032400;28;19956;-65
2022/09/23 04:10:08;;;;;;;;;;;;;;;;;;5032970;28;19909;-65
2022/09/23 04:12:34;;;;;;;;;;;;;;;;;;5032637;28;19959;-65
2022/09/23 04:15:00;;;;;;;;;;;;;;;;;;5026108;28;19912;-64
2022/09/23 04:17:26;;;;;;;;;;;;;;;;;;5032492;28;20259;-67
2022/09/23 04:19:52;;;;;;;;;;;;;;;;;;5032387;28;19912;-66
2022/09/23 04:22:18;;;;;;;;;;;;;;;;;;5032276;28;20044;-65
2022/09/23 04:24:44;;;;;;;;;;;;;;;;;;5032646;28;19905;-66
2022/09/23 04:27:09;;;;;;;;;;;;;;;;;;5031911;28;20271;-66
2022/09/23 04:29:35;;;;;;;;;;;;;;;;;;5032207;28;19967;-66
2022/09/23 04:32:01;;;;;;;;;;;;;;;;;;5032543;28;19931;-65
2022/09/23 04:34:27;;;;;;;;;;;;;;;;;;5027536;28;19916;-65
2022/09/23 04:36:53;;;;;;;;;;;;;;;;;;5030396;28;19905;-65
2022/09/23 04:39:19;;;;;;;;;;;;;;;;;;5032396;28;19912;-64
2022/09/23 04:41:45;;;;;;;;;;;;;;;;;;5032564;28;19905;-65
2022/09/23 04:44:11;;;;;;;;;;;;;;;;;;5032560;28;19960;-65
2022/09/23 04:46:38;;;;;;;;;;;;;;;;;;5030955;28;19917;-64
2022/09/23 04:49:03;;;;;;;;;;;;;;;;;;5032216;28;19909;-64
2022/09/23 04:51:29;;;;;;;;;;;;;;;;;;5030449;28;20767;-65
2022/09/23 04:53:55;;;;;;;;;;;;;;;;;;5031993;28;19909;-63
2022/09/23 04:56:21;;;;;;;;;;;;;;;;;;5031637;28;19905;-65
2022/09/23 04:58:47;;;;;;;;;;;;;;;;;;5032008;28;20384;-65
2022/09/23 05:01:13;;;;;;;;;;;;;;;;;;5031819;28;19909;-65
2022/09/23 05:03:39;;;;;;;;;;;;;;;;;;5031177;28;20397;-65
2022/09/23 05:06:06;;;;;;;;;;;;;;;;;;5031992;28;19913;-64
2022/09/23 05:08:32;;;;;;;;;;;;;;;;;;5026495;28;20015;-65
2022/09/23 05:10:58;;;;;;;;;;;;;;;;;;5031534;28;19923;-64
2022/09/23 05:13:24;;;;;;;;;;;;;;;;;;5031923;28;19974;-67
2022/09/23 05:15:50;;;;;;;;;;;;;;;;;;5031583;28;19905;-65
2022/09/23 05:18:15;;;;;;;;;;;;;;;;;;5031233;28;19905;-64
2022/09/23 05:20:41;;;;;;;;;;;;;;;;;;5031513;28;20039;-65
2022/09/23 05:23:07;;;;;;;;;;;;;;;;;;5031343;28;20270;-63
2022/09/23 05:25:33;;;;;;;;;;;;;;;;;;5031632;28;19913;-66
2022/09/23 05:27:59;;;;;;;;;;;;;;;;;;5031486;28;19913;-66
2022/09/23 05:30:25;;;;;;;;;;;;;;;;;;5031687;28;19912;-67
2022/09/23 05:32:51;;;;;;;;;;;;;;;;;;5030904;28;19909;-66
2022/09/23 05:35:17;;;;;;;;;;;;;;;;;;5031241;28;19964;-66
2022/09/23 05:37:43;;;;;;;;;;;;;;;;;;5031234;28;19999;-66
2022/09/23 05:40:09;;;;;;;;;;;;;;;;;;5031848;28;19905;-67
2022/09/23 05:42:35;;;;;;;;;;;;;;;;;;5030918;28;20333;-66
2022/09/23 05:45:01;;;;;;;;;;;;;;;;;;5031193;28;20349;-67
2022/09/23 05:47:26;;;;;;;;;;;;;;;;;;5029433;28;19913;-66
2022/09/23 05:49:54;;;;;;;;;;;;;;;;;;5031334;28;19905;-66
2022/09/23 05:52:19;;;;;;;;;;;;;;;;;;5030640;28;19944;-67
2022/09/23 05:54:45;;;;;;;;;;;;;;;;;;5030905;28;19951;-66
2022/09/23 05:57:11;;;;;;;;;;;;;;;;;;5030873;28;19912;-66
2022/09/23 05:59:37;;;;;;;;;;;;;;;;;;5031064;28;19950;-66
2022/09/23 06:02:03;;;;;;;;;;;;;;;;;;5030268;28;20290;-65
2022/09/23 06:04:29;;;;;;;;;;;;;;;;;;5031066;28;19909;-66
2022/09/23 06:06:55;;;;;;;;;;;;;;;;;;5031029;28;19920;-66
2022/09/23 06:09:21;;;;;;;;;;;;;;;;;;5030800;28;19905;-65
2022/09/23 06:11:49;;;;;;;;;;;;;;;;;;5030668;28;19911;-66
2022/09/23 06:14:15;;;;;;;;;;;;;;;;;;5030723;28;19905;-66
2022/09/23 06:16:41;;;;;;;;;;;;;;;;;;5030441;28;19912;-64
2022/09/23 06:19:08;;;;;;;;;;;;;;;;;;5031128;28;19909;-65
2022/09/23 06:21:34;;;;;;;;;;;;;;;;;;5031039;28;20035;-65
2022/09/23 06:24:01;;;;;;;;;;;;;;;;;;5031260;28;19924;-66
2022/09/23 06:26:27;;;;;;;;;;;;;;;;;;5030704;28;19917;-66
2022/09/23 06:28:53;;;;;;;;;;;;;;;;;;5024586;28;19905;-66
2022/09/23 06:31:20;;;;;;;;;;;;;;;;;;5030615;28;19959;-64
2022/09/23 06:33:45;;;;;;;;;;;;;;;;;;5030289;28;19978;-66
2022/09/23 06:36:11;;;;;;;;;;;;;;;;;;5030454;28;20607;-68
2022/09/23 06:38:37;;;;;;;;;;;;;;;;;;5030767;28;19905;-67
2022/09/23 06:41:03;;;;;;;;;;;;;;;;;;5030343;28;20051;-68
2022/09/23 06:43:29;;;;;;;;;;;;;;;;;;5030650;28;19905;-67
2022/09/23 06:45:55;;;;;;;;;;;;;;;;;;5029755;28;20384;-66
2022/09/23 06:48:21;;;;;;;;;;;;;;;;;;5027542;28;20628;-66
2022/09/23 06:50:50;;;;;;;;;;;;;;;;;;5029742;28;20388;-67
2022/09/23 06:53:16;;;;;;;;;;;;;;;;;;5030074;28;20420;-67
2022/09/23 06:55:42;;;;;;;;;;;;;;;;;;5029925;28;20459;-68
2022/09/23 06:58:08;;;;;;;;;;;;;;;;;;5030883;28;20370;-67
2022/09/23 07:00:34;;;;;;;;;;;;;;;;;;5030109;28;20371;-67
2022/09/23 07:02:59;;;;;;;;;;;;;;;;;;5028743;28;20397;-67
2022/09/23 07:05:25;;;;;;;;;;;;;;;;;;5024304;28;20453;-67
2022/09/23 07:07:52;;;;;;;;;;;;;;;;;;5032717;28;20425;-67
2022/09/23 07:10:18;;;;;;;;;;;;;;;;;;5032505;28;20821;-66
2022/09/23 07:12:44;;;;;;;;;;;;;;;;;;5032903;28;20386;-67
2022/09/23 07:15:09;;;;;;;;;;;;;;;;;;5032396;28;20181;-66
2022/09/23 07:17:35;;;;;;;;;;;;;;;;;;5032880;28;20316;-67
2022/09/23 07:20:01;;;;;;;;;;;;;;;;;;5032463;28;19981;-66
2022/09/23 07:22:27;;;;;;;;;;;;;;;;;;5032541;28;20688;-66
2022/09/23 07:24:56;;;;;;;;;;;;;;;;;;5033061;28;20373;-66
2022/09/23 07:27:22;;;;;;;;;;;;;;;;;;5032298;28;20414;-66
2022/09/23 07:29:48;;;;;;;;;;;;;;;;;;5031529;28;20405;-66
2022/09/23 07:32:13;;;;;;;;;;;;;;;;;;5032592;28;20374;-67
2022/09/23 07:34:39;;;;;;;;;;;;;;;;;;5032153;28;20844;-66
2022/09/23 07:37:05;;;;;;;;;;;;;;;;;;5030445;28;20533;-67
2022/09/23 07:39:31;;;;;;;;;;;;;;;;;;5032251;28;20728;-67
2022/09/23 07:41:58;;;;;;;;;;;;;;;;;;5032006;28;20373;-67
2022/09/23 07:44:24;;;;;;;;;;;;;;;;;;5031144;28;20403;-66
2022/09/23 07:46:50;;;;;;;;;;;;;;;;;;5031588;28;20163;-68
2022/09/23 07:49:16;;;;;;;;;;;;;;;;;;5031506;28;20274;-67
2022/09/23 07:51:45;;;;;;;;;;;;;;;;;;5031107;28;20403;-68
2022/09/23 07:54:10;;;;;;;;;;;;;;;;;;5031355;28;20371;-69
2022/09/23 07:56:36;;;;;;;;;;;;;;;;;;5026277;28;20378;-71
2022/09/23 07:59:02;;;;;;;;;;;;;;;;;;5030950;28;20728;-68
2022/09/23 08:01:29;;;;;;;;;;;;;;;;;;5032331;28;21973;-68
2022/09/23 08:03:54;;;;;;;;;;;;;;;;;;5032332;28;20449;-67
2022/09/23 08:06:20;;;;;;;;;;;;;;;;;;5032247;28;20490;-68
2022/09/23 08:08:46;;;;;;;;;;;;;;;;;;5033108;28;20127;-68
2022/09/23 08:11:13;;;;;;;;;;;;;;;;;;5032653;28;20385;-69
2022/09/23 08:13:38;;;;;;;;;;;;;;;;;;5032042;28;19916;-68
2022/09/23 08:16:05;;;;;;;;;;;;;;;;;;5032191;28;19992;-68
2022/09/23 08:18:31;;;;;;;;;;;;;;;;;;5032466;28;19912;-68
2022/09/23 08:20:57;;;;;;;;;;;;;;;;;;5032730;28;20290;-68
2022/09/23 08:23:23;;;;;;;;;;;;;;;;;;5032192;28;19966;-68
2022/09/23 08:25:49;;;;;;;;;;;;;;;;;;5032657;28;20289;-68
2022/09/23 08:28:15;;;;;;;;;;;;;;;;;;5032076;28;19905;-68
2022/09/23 08:30:41;;;;;;;;;;;;;;;;;;5032484;28;19909;-67
2022/09/23 08:33:07;;;;;;;;;;;;;;;;;;5031778;28;20373;-67
2022/09/23 08:35:33;;;;;;;;;;;;;;;;;;5030281;28;20035;-68
2022/09/23 08:37:59;;;;;;;;;;;;;;;;;;5027040;28;20357;-67
2022/09/23 08:40:31;;;;;;;;;;;;;;;;;;5031549;28;20321;-68
2022/09/23 08:42:57;;;;;;;;;;;;;;;;;;5031271;28;19955;-68
2022/09/23 08:45:23;;;;;;;;;;;;;;;;;;5031254;28;19975;-68
2022/09/23 08:47:49;;;;;;;;;;;;;;;;;;5031765;28;19911;-67
2022/09/23 08:50:15;;;;;;;;;;;;;;;;;;5031742;28;19906;-67
2022/09/23 08:52:41;;;;;;;;;;;;;;;;;;5031767;28;20490;-67
2022/09/23 08:55:07;;;;;;;;;;;;;;;;;;5031548;28;20416;-68
2022/09/23 08:57:33;;;;;;;;;;;;;;;;;;5031279;28;20416;-68
2022/09/23 08:59:59;;;;;;;;;;;;;;;;;;5025037;28;20380;-68
2022/09/23 09:02:25;;;;;;;;;;;;;;;;;;5031237;28;20359;-67
2022/09/23 09:04:51;;;;;;;;;;;;;;;;;;5031359;28;20144;-68
2022/09/23 09:07:17;;;;;;;;;;;;;;;;;;5031368;28;19992;-68
2022/09/23 09:09:44;;;;;;;;;;;;;;;;;;5024077;28;20281;-67
2022/09/23 09:12:09;;;;;;;;;;;;;;;;;;5031698;28;19971;-68
2022/09/23 09:14:36;;;;;;;;;;;;;;;;;;5030775;28;20317;-68
2022/09/23 09:17:02;;;;;;;;;;;;;;;;;;5031250;28;19917;-68
2022/09/23 09:19:31;;;;;;;;;;;;;;;;;;4953833;28;20148;-68
2022/09/23 09:21:57;;;;;;;;;;;;;;;;;;5031367;28;20272;-68
2022/09/23 09:24:23;;;;;;;;;;;;;;;;;;5030432;28;20354;-68
2022/09/23 09:26:48;;;;;;;;;;;;;;;;;;5031227;28;20417;-68
2022/09/23 09:29:14;;;;;;;;;;;;;;;;;;5030608;28;20731;-68
2022/09/23 09:31:41;;;;;;;;;;;;;;;;;;5030949;28;20402;-68
2022/09/23 09:34:07;;;;;;;;;;;;;;;;;;5031421;28;20371;-67
2022/09/23 09:36:34;;;;;;;;;;;;;;;;;;5031183;28;20378;-68
2022/09/23 09:39:00;;;;;;;;;;;;;;;;;;5030446;28;20355;-68
2022/09/23 09:41:27;;;;;;;;;;;;;;;;;;5031109;28;20381;-68
2022/09/23 09:43:58;;;;;;;;;;;;;;;;;;5030717;28;20210;-67
2022/09/23 09:46:24;;;;;;;;;;;;;;;;;;5030439;28;19917;-68
2022/09/23 09:48:52;;;;;;;;;;;;;;;;;;5030224;28;20381;-67
2022/09/23 09:51:18;;;;;;;;;;;;;;;;;;5030892;28;19910;-68
2022/09/23 09:53:44;;;;;;;;;;;;;;;;;;5030436;28;19921;-69
2022/09/23 09:56:10;;;;;;;;;;;;;;;;;;5030639;28;19917;-67
2022/09/23 09:58:39;;;;;;;;;;;;;;;;;;5028800;28;20876;-67
2022/09/23 10:01:05;;;;;;;;;;;;;;;;;;5026904;28;20370;-67
2022/09/23 10:03:31;;;;;;;;;;;;;;;;;;5022782;28;20434;-68
2022/09/23 10:05:57;;;;;;;;;;;;;;;;;;5030600;28;20501;-68
2022/09/23 10:08:23;;;;;;;;;;;;;;;;;;5030010;28;20374;-68
2022/09/23 10:10:50;;;;;;;;;;;;;;;;;;5030986;28;20372;-69
2022/09/23 10:13:16;;;;;;;;;;;;;;;;;;5030388;28;20851;-68
2022/09/23 10:15:42;;;;;;;;;;;;;;;;;;5010509;28;20344;-67
2022/09/23 10:18:08;;;;;;;;;;;;;;;;;;5030900;28;20361;-68
2022/09/23 10:20:36;;;;;;;;;;;;;;;;;;5030401;28;20149;-68
2022/09/23 10:23:02;;;;;;;;;;;;;;;;;;5030204;28;20367;-67
2022/09/23 10:25:28;;;;;;;;;;;;;;;;;;5030105;28;20371;-67
2022/09/23 10:27:54;;;;;;;;;;;;;;;;;;5030458;28;20261;-68
2022/09/23 10:30:20;;;;;;;;;;;;;;;;;;5030631;28;20801;-68
2022/09/23 10:32:46;;;;;;;;;;;;;;;;;;5031142;28;20360;-68
2022/09/23 10:35:12;;;;;;;;;;;;;;;;;;5030159;28;20375;-68
2022/09/23 10:37:38;;;;;;;;;;;;;;;;;;5030448;28;20458;-68
2022/09/23 10:48:18;;;;;;;;;;;;;;;;;;5026977;28;20302;-68
2022/09/23 10:50:45;;;;;;;;;;;;;;;;;;4930070;28;20027;-68
2022/09/23 10:53:11;;;;;;;;;;;;;;;;;;4905032;28;20034;-68
2022/09/23 10:55:37;;;;;;;;;;;;;;;;;;4885949;28;20238;-67
2022/09/23 10:58:03;;;;;;;;;;;;;;;;;;4982910;28;19912;-68
2022/09/23 11:00:29;;;;;;;;;;;;;;;;;;5033494;28;19950;-68
2022/09/23 11:02:55;;;;;;;;;;;;;;;;;;5033713;28;19912;-66
2022/09/23 11:05:21;;;;;;;;;;;;;;;;;;5033523;28;19909;-67
2022/09/23 11:07:48;;;;;;;;;;;;;;;;;;5034158;28;19928;-68
2022/09/23 11:10:14;;;;;;;;;;;;;;;;;;5033763;28;20366;-68
2022/09/23 11:12:40;;;;;;;;;;;;;;;;;;5034212;28;20232;-68
2022/09/23 11:15:06;;;;;;;;;;;;;;;;;;5033345;28;20362;-68
2022/09/23 11:17:32;;;;;;;;;;;;;;;;;;5033591;28;20008;-67
2022/09/23 11:19:59;;;;;;;;;;;;;;;;;;5033041;28;19919;-66
2022/09/23 11:22:31;;;;;;;;;;;;;;;;;;5032991;28;19905;-67
2022/09/23 11:24:57;;;;;;;;;;;;;;;;;;5033446;28;19948;-66
2022/09/23 11:27:24;;;;;;;;;;;;;;;;;;5033979;28;19917;-67
2022/09/23 11:29:50;;;;;;;;;;;;;;;;;;5033487;28;20000;-68
2022/09/23 11:32:16;;;;;;;;;;;;;;;;;;5033077;28;20027;-68
2022/09/23 11:34:42;;;;;;;;;;;;;;;;;;5033368;28;20350;-67
2022/09/23 11:37:08;;;;;;;;;;;;;;;;;;5032963;28;19905;-68
2022/09/23 11:39:35;;;;;;;;;;;;;;;;;;5033235;28;20363;-68
2022/09/23 11:42:00;;;;;;;;;;;;;;;;;;5032859;28;19992;-67
2022/09/23 11:44:27;;;;;;;;;;;;;;;;;;5033287;28;20144;-67
2022/09/23 11:46:53;;;;;;;;;;;;;;;;;;5032958;28;19920;-69
2022/09/23 11:49:19;;;;;;;;;;;;;;;;;;5032774;28;19905;-68
2022/09/23 11:51:45;;;;;;;;;;;;;;;;;;5026023;28;19917;-69
2022/09/23 11:54:10;;;;;;;;;;;;;;;;;;5030385;28;20406;-67
2022/09/23 11:56:37;;;;;;;;;;;;;;;;;;5025406;28;20415;-68
2022/09/23 11:59:03;;;;;;;;;;;;;;;;;;5031305;28;20282;-68
2022/09/23 12:01:30;;;;;;;;;;;;;;;;;;5025235;28;20421;-67
2022/09/23 12:03:56;;;;;;;;;;;;;;;;;;5031910;28;19917;-68
2022/09/23 12:06:22;;;;;;;;;;;;;;;;;;5030038;28;20295;-67
2022/09/23 12:08:48;;;;;;;;;;;;;;;;;;5031367;28;20265;-66
2022/09/23 12:11:14;;;;;;;;;;;;;;;;;;5029459;28;19913;-67
2022/09/23 12:13:40;;;;;;;;;;;;;;;;;;5030416;28;20366;-67
2022/09/23 12:16:06;;;;;;;;;;;;;;;;;;5031616;28;19920;-67
2022/09/23 12:18:34;;;;;;;;;;;;;;;;;;5030817;28;19920;-67
2022/09/23 12:21:00;;;;;;;;;;;;;;;;;;5030623;28;19913;-67
2022/09/23 12:23:26;;;;;;;;;;;;;;;;;;5031231;28;19916;-68
2022/09/23 12:25:52;;;;;;;;;;;;;;;;;;5030841;28;19941;-67
2022/09/23 12:28:18;;;;;;;;;;;;;;;;;;5030771;28;19905;-68
2022/09/23 12:30:44;;;;;;;;;;;;;;;;;;5028399;28;19912;-67
2022/09/23 12:33:10;;;;;;;;;;;;;;;;;;5030255;28;19913;-69
2022/09/23 12:35:37;;;;;;;;;;;;;;;;;;5031279;28;19970;-68
2022/09/23 12:38:02;;;;;;;;;;;;;;;;;;5031056;28;19909;-67
2022/09/23 12:40:29;;;;;;;;;;;;;;;;;;5030789;28;19905;-68
2022/09/23 12:42:55;;;;;;;;;;;;;;;;;;5031708;28;19913;-70
2022/09/23 12:45:21;;;;;;;;;;;;;;;;;;5023716;28;19986;-69
2022/09/23 12:47:47;;;;;;;;;;;;;;;;;;5030901;28;19909;-70
2022/09/23 12:50:13;;;;;;;;;;;;;;;;;;5031346;28;19941;-68
2022/09/23 12:52:39;;;;;;;;;;;;;;;;;;5030726;28;20630;-68
2022/09/23 12:55:07;;;;;;;;;;;;;;;;;;5030686;28;19905;-69
2022/09/23 12:57:32;;;;;;;;;;;;;;;;;;5029941;28;19944;-69
2022/09/23 12:59:58;;;;;;;;;;;;;;;;;;5030444;28;19948;-68
2022/09/23 13:02:24;;;;;;;;;;;;;;;;;;5029166;28;19950;-68
2022/09/23 13:07:35;;;;;;;;;;;;;;;;;;5028099;28;19979;-68
2022/09/23 13:10:01;;;;;;;;;;;;;;;;;;5030011;28;19962;-69
2022/09/23 13:12:27;;;;;;;;;;;;;;;;;;5029857;28;19905;-69
2022/09/23 13:14:53;;;;;;;;;;;;;;;;;;5030215;28;20346;-68
2022/09/23 13:17:18;;;;;;;;;;;;;;;;;;5029376;28;19916;-69
2022/09/23 13:19:45;;;;;;;;;;;;;;;;;;5030463;28;20389;-67
2022/09/23 13:22:10;;;;;;;;;;;;;;;;;;5030300;28;19905;-68
2022/09/23 13:24:38;;;;;;;;;;;;;;;;;;5023706;28;20629;-68
2022/09/23 13:27:04;;;;;;;;;;;;;;;;;;5030251;28;19960;-68
2022/09/23 13:29:32;;;;;;;;;;;;;;;;;;5030113;28;19944;-68
2022/09/23 13:31:57;;;;;;;;;;;;;;;;;;5029794;28;19909;-69
2022/09/23 13:34:23;;;;;;;;;;;;;;;;;;5029806;28;20259;-68
2022/09/23 13:36:49;;;;;;;;;;;;;;;;;;5030690;28;19905;-68
2022/09/23 13:39:15;;;;;;;;;;;;;;;;;;5029961;28;20466;-67
2022/09/23 13:41:41;;;;;;;;;;;;;;;;;;5029837;28;19905;-68
2022/09/23 13:44:08;;;;;;;;;;;;;;;;;;5030252;28;19917;-69
2022/09/23 13:46:34;;;;;;;;;;;;;;;;;;5029427;28;19924;-67
2022/09/23 13:49:00;;;;;;;;;;;;;;;;;;5029954;28;19905;-68
2022/09/23 13:51:25;;;;;;;;;;;;;;;;;;5029978;28;20836;-66
2022/09/23 13:53:52;;;;;;;;;;;;;;;;;;5028929;28;20340;-69
2022/09/23 13:56:18;;;;;;;;;;;;;;;;;;5029530;28;19912;-68
2022/09/23 13:58:44;;;;;;;;;;;;;;;;;;5030152;28;19905;-68
2022/09/23 14:01:10;;;;;;;;;;;;;;;;;;5027858;28;19936;-69
2022/09/23 14:03:36;;;;;;;;;;;;;;;;;;5029759;28;19909;-69
2022/09/23 14:06:02;;;;;;;;;;;;;;;;;;5023241;28;19920;-68
2022/09/23 14:08:28;;;;;;;;;;;;;;;;;;5030350;28;19963;-67
2022/09/23 14:10:54;;;;;;;;;;;;;;;;;;5029564;28;19970;-69
2022/09/23 14:13:20;;;;;;;;;;;;;;;;;;5030012;28;20441;-69
2022/09/23 14:15:46;;;;;;;;;;;;;;;;;;5033360;28;19909;-69
2022/09/23 14:18:11;;;;;;;;;;;;;;;;;;5033670;28;20423;-69
2022/09/23 14:20:37;;;;;;;;;;;;;;;;;;5033530;28;19944;-68
2022/09/23 14:23:03;;;;;;;;;;;;;;;;;;5033200;28;20406;-67
2022/09/23 14:25:29;;;;;;;;;;;;;;;;;;5033337;28;19905;-68
2022/09/23 14:27:55;;;;;;;;;;;;;;;;;;5033838;28;19913;-68
2022/09/23 14:30:21;;;;;;;;;;;;;;;;;;5032639;28;19909;-68
2022/09/23 14:32:47;;;;;;;;;;;;;;;;;;5032401;28;19941;-67
2022/09/23 14:35:13;;;;;;;;;;;;;;;;;;5033165;28;19936;-70
2022/09/23 14:40:23;;;;;;;;;;;;;;;;;;5032685;28;20012;-68
2022/09/23 14:42:50;;;;;;;;;;;;;;;;;;5030373;28;20015;-67
2022/09/23 14:45:16;;;;;;;;;;;;;;;;;;5029021;28;20431;-69
2022/09/23 14:47:42;;;;;;;;;;;;;;;;;;5032431;28;19921;-69
2022/09/23 14:52:53;;;;;;;;;;;;;;;;;;5031919;28;20369;-67
2022/09/23 14:55:19;;;;;;;;;;;;;;;;;;5032642;28;19905;-67
2022/09/23 14:57:45;;;;;;;;;;;;;;;;;;5031933;28;19912;-67
2022/09/23 15:00:11;;;;;;;;;;;;;;;;;;5030810;28;19956;-68
2022/09/23 15:02:37;;;;;;;;;;;;;;;;;;5030087;28;19905;-67
2022/09/23 15:05:03;;;;;;;;;;;;;;;;;;5031838;28;19988;-69
2022/09/23 15:07:28;;;;;;;;;;;;;;;;;;5032342;28;19913;-66
2022/09/23 15:09:54;;;;;;;;;;;;;;;;;;5032269;28;19909;-68
2022/09/23 15:12:20;;;;;;;;;;;;;;;;;;5031810;28;20561;-68
2022/09/23 15:14:47;;;;;;;;;;;;;;;;;;5032705;28;19999;-68
2022/09/23 15:17:13;;;;;;;;;;;;;;;;;;5031876;28;20354;-68
2022/09/23 15:19:39;;;;;;;;;;;;;;;;;;5028083;28;19905;-67
2022/09/23 15:22:05;;;;;;;;;;;;;;;;;;5031944;28;19905;-67
2022/09/23 15:24:31;;;;;;;;;;;;;;;;;;5031726;28;19998;-68
2022/09/23 15:26:57;;;;;;;;;;;;;;;;;;5027473;28;19983;-70
2022/09/23 15:29:24;;;;;;;;;;;;;;;;;;5030565;28;20396;-68
2022/09/23 15:31:50;;;;;;;;;;;;;;;;;;5031722;28;19905;-69
2022/09/23 15:34:19;;;;;;;;;;;;;;;;;;5032047;28;19905;-68
2022/09/23 15:36:45;;;;;;;;;;;;;;;;;;5032535;28;19909;-68
2022/09/23 15:39:11;;;;;;;;;;;;;;;;;;5032353;28;19909;-69
2022/09/23 15:41:37;;;;;;;;;;;;;;;;;;5030936;28;19955;-68
2022/09/23 15:44:03;;;;;;;;;;;;;;;;;;5031810;28;19955;-67
2022/09/23 15:46:31;;;;;;;;;;;;;;;;;;5032586;28;19925;-69
2022/09/23 15:48:57;;;;;;;;;;;;;;;;;;5033405;28;19905;-67
2022/09/23 15:51:23;;;;;;;;;;;;;;;;;;5032611;28;20773;-67
2022/09/23 15:53:49;;;;;;;;;;;;;;;;;;5033177;28;19909;-67
2022/09/23 15:56:15;;;;;;;;;;;;;;;;;;5031831;28;19916;-68
2022/09/23 15:58:41;;;;;;;;;;;;;;;;;;5031787;28;19917;-67
2022/09/23 16:01:07;;;;;;;;;;;;;;;;;;5033291;28;19906;-68
2022/09/23 16:03:33;;;;;;;;;;;;;;;;;;5032923;28;20381;-66
2022/09/23 16:05:59;;;;;;;;;;;;;;;;;;5033021;28;19963;-68
2022/09/23 16:08:25;;;;;;;;;;;;;;;;;;5032689;28;19917;-68
2022/09/23 16:10:52;;;;;;;;;;;;;;;;;;5031296;28;20000;-69
2022/09/23 16:13:18;;;;;;;;;;;;;;;;;;5032580;28;19905;-68
2022/09/23 16:15:44;;;;;;;;;;;;;;;;;;5032614;28;19905;-67
2022/09/23 16:18:10;;;;;;;;;;;;;;;;;;5032531;28;20007;-69
2022/09/23 16:20:36;;;;;;;;;;;;;;;;;;5031949;28;19905;-69
2022/09/23 16:23:02;;;;;;;;;;;;;;;;;;5032017;28;20378;-70
2022/09/23 16:25:28;;;;;;;;;;;;;;;;;;5032708;28;19909;-71
2022/09/23 16:27:54;;;;;;;;;;;;;;;;;;5032196;28;19909;-68
2022/09/23 16:30:20;;;;;;;;;;;;;;;;;;5032313;28;19988;-67
2022/09/23 16:32:46;;;;;;;;;;;;;;;;;;5032542;28;19913;-69
2022/09/23 16:35:12;;;;;;;;;;;;;;;;;;5032222;28;19937;-69
2022/09/23 16:37:37;;;;;;;;;;;;;;;;;;5032034;28;20441;-69
2022/09/23 16:40:06;;;;;;;;;;;;;;;;;;5031438;28;19920;-68
2022/09/23 16:42:32;;;;;;;;;;;;;;;;;;5031309;28;20023;-68
2022/09/23 16:44:57;;;;;;;;;;;;;;;;;;5031492;28;19928;-68
2022/09/23 16:47:23;;;;;;;;;;;;;;;;;;5032038;28;19920;-68
2022/09/23 16:49:49;;;;;;;;;;;;;;;;;;5031660;28;19999;-67
2022/09/23 16:52:15;;;;;;;;;;;;;;;;;;5031303;28;19971;-69
2022/09/23 16:54:42;;;;;;;;;;;;;;;;;;5031721;28;19974;-68